sensor_id;sensor_type;location;lat;lon;timestamp;P1;durP1;ratioP1;P2;durP2;ratioP2
45103;SDS011;30865;51.288;4.572;2023-06-22T00:00:48;8.63;;;6.22;;
45103;SDS011;30865;51.288;4.572;2023-06-22T00:03:15;9.18;;;5.15;;
45103;SDS011;30865;51.288;4.572;2023-06-22T00:05:40;10.38;;;4.97;;
45103;SDS011;30865;51.288;4.572;2023-06-22T00:08:06;9.63;;;5.28;;
45103;SDS011;30865;51.288;4.572;2023-06-22T00:10:32;9.07;;;5.95;;
45103;SDS011;30865;51.288;4.572;2023-06-22T00:12:57;14.18;;;6.30;;
45103;SDS011;30865;51.288;4.572;2023-06-22T00:15:23;15.55;;;6.68;;
45103;SDS011;30865;51.288;4.572;2023-06-22T00:17:49;10.75;;;6.38;;
45103;SDS011;30865;51.288;4.572;2023-06-22T00:20:15;9.80;;;5.28;;
45103;SDS011;30865;51.288;4.572;2023-06-22T00:22:43;12.95;;;7.00;;
45103;SDS011;30865;51.288;4.572;2023-06-22T00:25:09;10.80;;;5.95;;
45103;SDS011;30865;51.288;4.572;2023-06-22T00:27:35;12.48;;;6.90;;
45103;SDS011;30865;51.288;4.572;2023-06-22T00:30:01;12.48;;;7.05;;
45103;SDS011;30865;51.288;4.572;2023-06-22T00:32:27;12.00;;;7.03;;
45103;SDS011;30865;51.288;4.572;2023-06-22T00:34:53;23.40;;;6.88;;
45103;SDS011;30865;51.288;4.572;2023-06-22T00:37:19;13.32;;;6.30;;
45103;SDS011;30865;51.288;4.572;2023-06-22T00:39:44;11.50;;;6.20;;
45103;SDS011;30865;51.288;4.572;2023-06-22T00:42:09;10.75;;;5.88;;
45103;SDS011;30865;51.288;4.572;2023-06-22T00:44:35;14.85;;;6.95;;
45103;SDS011;30865;51.288;4.572;2023-06-22T00:47:01;6.63;;;5.28;;
45103;SDS011;30865;51.288;4.572;2023-06-22T00:49:27;8.60;;;5.90;;
45103;SDS011;30865;51.288;4.572;2023-06-22T00:51:53;9.65;;;6.03;;
45103;SDS011;30865;51.288;4.572;2023-06-22T00:54:19;13.75;;;5.95;;
45103;SDS011;30865;51.288;4.572;2023-06-22T00:56:50;14.67;;;7.00;;
45103;SDS011;30865;51.288;4.572;2023-06-22T00:59:21;9.02;;;5.85;;
45103;SDS011;30865;51.288;4.572;2023-06-22T01:01:46;11.30;;;6.75;;
45103;SDS011;30865;51.288;4.572;2023-06-22T01:04:12;12.05;;;6.70;;
45103;SDS011;30865;51.288;4.572;2023-06-22T01:06:38;11.93;;;6.88;;
45103;SDS011;30865;51.288;4.572;2023-06-22T01:09:20;12.50;;;6.95;;
45103;SDS011;30865;51.288;4.572;2023-06-22T01:11:59;12.70;;;7.75;;
45103;SDS011;30865;51.288;4.572;2023-06-22T01:14:38;12.77;;;7.07;;
45103;SDS011;30865;51.288;4.572;2023-06-22T01:17:12;10.73;;;6.25;;
45103;SDS011;30865;51.288;4.572;2023-06-22T01:19:45;10.45;;;5.90;;
45103;SDS011;30865;51.288;4.572;2023-06-22T01:22:13;8.57;;;5.90;;
45103;SDS011;30865;51.288;4.572;2023-06-22T01:27:17;9.32;;;6.07;;
45103;SDS011;30865;51.288;4.572;2023-06-22T01:29:55;8.68;;;5.28;;
45103;SDS011;30865;51.288;4.572;2023-06-22T01:32:25;7.47;;;5.32;;
45103;SDS011;30865;51.288;4.572;2023-06-22T01:34:57;8.13;;;5.68;;
45103;SDS011;30865;51.288;4.572;2023-06-22T01:37:24;8.23;;;5.45;;
45103;SDS011;30865;51.288;4.572;2023-06-22T01:39:50;7.68;;;5.38;;
45103;SDS011;30865;51.288;4.572;2023-06-22T01:42:17;9.63;;;5.82;;
45103;SDS011;30865;51.288;4.572;2023-06-22T01:44:42;13.60;;;6.03;;
45103;SDS011;30865;51.288;4.572;2023-06-22T01:47:08;8.45;;;6.07;;
45103;SDS011;30865;51.288;4.572;2023-06-22T01:49:34;9.98;;;5.93;;
45103;SDS011;30865;51.288;4.572;2023-06-22T01:52:00;9.50;;;6.00;;
45103;SDS011;30865;51.288;4.572;2023-06-22T01:54:26;14.77;;;6.20;;
45103;SDS011;30865;51.288;4.572;2023-06-22T01:56:51;8.73;;;5.85;;
45103;SDS011;30865;51.288;4.572;2023-06-22T01:59:28;10.35;;;5.82;;
45103;SDS011;30865;51.288;4.572;2023-06-22T02:02:06;11.27;;;5.97;;
45103;SDS011;30865;51.288;4.572;2023-06-22T02:04:34;10.15;;;5.80;;
45103;SDS011;30865;51.288;4.572;2023-06-22T02:07:10;11.07;;;6.45;;
45103;SDS011;30865;51.288;4.572;2023-06-22T02:09:40;11.20;;;5.60;;
45103;SDS011;30865;51.288;4.572;2023-06-22T02:12:09;9.50;;;5.70;;
45103;SDS011;30865;51.288;4.572;2023-06-22T02:14:36;8.38;;;5.57;;
45103;SDS011;30865;51.288;4.572;2023-06-22T02:17:03;12.68;;;5.72;;
45103;SDS011;30865;51.288;4.572;2023-06-22T02:19:32;7.72;;;6.05;;
45103;SDS011;30865;51.288;4.572;2023-06-22T02:22:01;9.88;;;5.50;;
45103;SDS011;30865;51.288;4.572;2023-06-22T02:24:26;11.27;;;6.70;;
45103;SDS011;30865;51.288;4.572;2023-06-22T02:26:52;13.18;;;6.38;;
45103;SDS011;30865;51.288;4.572;2023-06-22T02:29:17;10.73;;;6.72;;
45103;SDS011;30865;51.288;4.572;2023-06-22T02:31:43;10.93;;;6.50;;
45103;SDS011;30865;51.288;4.572;2023-06-22T02:34:08;9.82;;;6.88;;
45103;SDS011;30865;51.288;4.572;2023-06-22T02:36:34;8.68;;;5.70;;
45103;SDS011;30865;51.288;4.572;2023-06-22T02:38:59;10.27;;;6.28;;
45103;SDS011;30865;51.288;4.572;2023-06-22T02:41:26;10.27;;;6.38;;
45103;SDS011;30865;51.288;4.572;2023-06-22T02:43:52;9.50;;;6.57;;
45103;SDS011;30865;51.288;4.572;2023-06-22T02:46:18;14.40;;;7.63;;
45103;SDS011;30865;51.288;4.572;2023-06-22T02:48:43;9.48;;;5.88;;
45103;SDS011;30865;51.288;4.572;2023-06-22T02:51:09;9.48;;;6.13;;
45103;SDS011;30865;51.288;4.572;2023-06-22T02:53:34;11.00;;;6.47;;
45103;SDS011;30865;51.288;4.572;2023-06-22T02:56:03;12.18;;;7.10;;
45103;SDS011;30865;51.288;4.572;2023-06-22T02:58:32;9.65;;;6.22;;
45103;SDS011;30865;51.288;4.572;2023-06-22T03:01:03;14.73;;;6.43;;
45103;SDS011;30865;51.288;4.572;2023-06-22T03:03:31;8.82;;;6.22;;
45103;SDS011;30865;51.288;4.572;2023-06-22T03:05:57;10.40;;;6.72;;
45103;SDS011;30865;51.288;4.572;2023-06-22T03:08:22;11.60;;;6.85;;
45103;SDS011;30865;51.288;4.572;2023-06-22T03:10:48;11.50;;;5.68;;
45103;SDS011;30865;51.288;4.572;2023-06-22T03:13:13;10.10;;;5.70;;
45103;SDS011;30865;51.288;4.572;2023-06-22T03:15:39;9.23;;;5.15;;
45103;SDS011;30865;51.288;4.572;2023-06-22T03:18:04;12.57;;;6.22;;
45103;SDS011;30865;51.288;4.572;2023-06-22T03:20:30;10.30;;;6.00;;
45103;SDS011;30865;51.288;4.572;2023-06-22T03:22:58;10.15;;;7.22;;
45103;SDS011;30865;51.288;4.572;2023-06-22T03:25:24;8.20;;;6.40;;
45103;SDS011;30865;51.288;4.572;2023-06-22T03:27:49;9.90;;;6.55;;
45103;SDS011;30865;51.288;4.572;2023-06-22T03:30:15;12.30;;;6.22;;
45103;SDS011;30865;51.288;4.572;2023-06-22T03:32:40;10.68;;;6.13;;
45103;SDS011;30865;51.288;4.572;2023-06-22T03:35:07;10.50;;;7.00;;
45103;SDS011;30865;51.288;4.572;2023-06-22T03:37:33;10.05;;;6.90;;
45103;SDS011;30865;51.288;4.572;2023-06-22T03:39:59;9.60;;;6.80;;
45103;SDS011;30865;51.288;4.572;2023-06-22T03:42:25;8.57;;;5.80;;
45103;SDS011;30865;51.288;4.572;2023-06-22T03:44:51;9.23;;;5.82;;
45103;SDS011;30865;51.288;4.572;2023-06-22T03:47:17;13.60;;;7.07;;
45103;SDS011;30865;51.288;4.572;2023-06-22T03:49:42;21.08;;;6.97;;
45103;SDS011;30865;51.288;4.572;2023-06-22T03:52:08;12.02;;;6.75;;
45103;SDS011;30865;51.288;4.572;2023-06-22T03:54:35;12.65;;;7.35;;
45103;SDS011;30865;51.288;4.572;2023-06-22T03:57:01;15.00;;;6.97;;
45103;SDS011;30865;51.288;4.572;2023-06-22T03:59:27;17.70;;;7.75;;
45103;SDS011;30865;51.288;4.572;2023-06-22T04:01:52;10.20;;;6.65;;
45103;SDS011;30865;51.288;4.572;2023-06-22T04:04:18;11.07;;;6.28;;
45103;SDS011;30865;51.288;4.572;2023-06-22T04:06:43;16.17;;;6.32;;
45103;SDS011;30865;51.288;4.572;2023-06-22T04:09:09;13.30;;;6.10;;
45103;SDS011;30865;51.288;4.572;2023-06-22T04:11:35;13.23;;;6.50;;
45103;SDS011;30865;51.288;4.572;2023-06-22T04:14:00;10.95;;;6.13;;
45103;SDS011;30865;51.288;4.572;2023-06-22T04:16:26;10.02;;;6.18;;
45103;SDS011;30865;51.288;4.572;2023-06-22T04:18:52;9.20;;;6.47;;
45103;SDS011;30865;51.288;4.572;2023-06-22T04:21:17;12.52;;;6.70;;
45103;SDS011;30865;51.288;4.572;2023-06-22T04:23:44;11.20;;;5.85;;
45103;SDS011;30865;51.288;4.572;2023-06-22T04:26:13;9.73;;;6.40;;
45103;SDS011;30865;51.288;4.572;2023-06-22T04:28:39;9.65;;;6.45;;
45103;SDS011;30865;51.288;4.572;2023-06-22T04:31:05;14.43;;;6.68;;
45103;SDS011;30865;51.288;4.572;2023-06-22T04:33:30;11.15;;;6.07;;
45103;SDS011;30865;51.288;4.572;2023-06-22T04:35:57;12.68;;;6.07;;
45103;SDS011;30865;51.288;4.572;2023-06-22T04:38:23;10.50;;;6.20;;
45103;SDS011;30865;51.288;4.572;2023-06-22T04:40:50;11.40;;;6.35;;
45103;SDS011;30865;51.288;4.572;2023-06-22T04:43:16;12.60;;;7.53;;
45103;SDS011;30865;51.288;4.572;2023-06-22T04:45:41;14.23;;;7.45;;
45103;SDS011;30865;51.288;4.572;2023-06-22T04:48:07;18.88;;;7.47;;
45103;SDS011;30865;51.288;4.572;2023-06-22T04:50:34;15.10;;;7.30;;
45103;SDS011;30865;51.288;4.572;2023-06-22T04:53:02;17.88;;;7.15;;
45103;SDS011;30865;51.288;4.572;2023-06-22T04:55:30;8.52;;;6.28;;
45103;SDS011;30865;51.288;4.572;2023-06-22T04:57:56;12.50;;;6.88;;
45103;SDS011;30865;51.288;4.572;2023-06-22T05:00:29;13.02;;;7.32;;
45103;SDS011;30865;51.288;4.572;2023-06-22T05:02:55;11.45;;;6.15;;
45103;SDS011;30865;51.288;4.572;2023-06-22T05:05:22;10.10;;;6.78;;
45103;SDS011;30865;51.288;4.572;2023-06-22T05:07:49;12.52;;;7.43;;
45103;SDS011;30865;51.288;4.572;2023-06-22T05:10:18;10.00;;;6.03;;
45103;SDS011;30865;51.288;4.572;2023-06-22T05:12:44;12.07;;;7.22;;
45103;SDS011;30865;51.288;4.572;2023-06-22T05:15:10;11.95;;;6.75;;
45103;SDS011;30865;51.288;4.572;2023-06-22T05:17:36;14.73;;;7.00;;
45103;SDS011;30865;51.288;4.572;2023-06-22T05:20:08;10.48;;;6.55;;
45103;SDS011;30865;51.288;4.572;2023-06-22T05:22:34;11.55;;;6.30;;
45103;SDS011;30865;51.288;4.572;2023-06-22T05:25:00;11.88;;;6.50;;
45103;SDS011;30865;51.288;4.572;2023-06-22T05:27:25;9.40;;;6.32;;
45103;SDS011;30865;51.288;4.572;2023-06-22T05:29:51;10.68;;;6.93;;
45103;SDS011;30865;51.288;4.572;2023-06-22T05:32:16;9.05;;;5.28;;
45103;SDS011;30865;51.288;4.572;2023-06-22T05:34:42;8.77;;;5.72;;
45103;SDS011;30865;51.288;4.572;2023-06-22T05:37:07;8.68;;;4.20;;
45103;SDS011;30865;51.288;4.572;2023-06-22T05:39:34;11.85;;;4.63;;
45103;SDS011;30865;51.288;4.572;2023-06-22T05:42:02;8.95;;;4.93;;
45103;SDS011;30865;51.288;4.572;2023-06-22T05:44:29;11.75;;;5.95;;
45103;SDS011;30865;51.288;4.572;2023-06-22T05:46:55;9.23;;;4.50;;
45103;SDS011;30865;51.288;4.572;2023-06-22T05:49:20;8.05;;;4.28;;
45103;SDS011;30865;51.288;4.572;2023-06-22T05:51:47;9.38;;;4.78;;
45103;SDS011;30865;51.288;4.572;2023-06-22T05:54:12;10.95;;;5.72;;
45103;SDS011;30865;51.288;4.572;2023-06-22T05:56:40;9.32;;;4.57;;
45103;SDS011;30865;51.288;4.572;2023-06-22T05:59:06;10.75;;;5.00;;
45103;SDS011;30865;51.288;4.572;2023-06-22T06:01:31;10.80;;;4.93;;
45103;SDS011;30865;51.288;4.572;2023-06-22T06:04:00;10.88;;;5.00;;
45103;SDS011;30865;51.288;4.572;2023-06-22T06:06:26;6.78;;;4.18;;
45103;SDS011;30865;51.288;4.572;2023-06-22T06:08:53;7.32;;;4.40;;
45103;SDS011;30865;51.288;4.572;2023-06-22T06:11:20;11.43;;;5.18;;
45103;SDS011;30865;51.288;4.572;2023-06-22T06:13:46;6.25;;;4.53;;
45103;SDS011;30865;51.288;4.572;2023-06-22T06:16:11;9.27;;;4.05;;
45103;SDS011;30865;51.288;4.572;2023-06-22T06:18:37;6.32;;;3.85;;
45103;SDS011;30865;51.288;4.572;2023-06-22T06:21:05;9.07;;;5.38;;
45103;SDS011;30865;51.288;4.572;2023-06-22T06:23:31;9.10;;;4.03;;
45103;SDS011;30865;51.288;4.572;2023-06-22T06:25:56;5.18;;;4.18;;
45103;SDS011;30865;51.288;4.572;2023-06-22T06:28:24;8.45;;;4.38;;
45103;SDS011;30865;51.288;4.572;2023-06-22T06:30:50;7.55;;;4.03;;
45103;SDS011;30865;51.288;4.572;2023-06-22T06:33:16;8.00;;;4.28;;
45103;SDS011;30865;51.288;4.572;2023-06-22T06:35:42;6.38;;;4.40;;
45103;SDS011;30865;51.288;4.572;2023-06-22T06:38:08;7.22;;;4.05;;
45103;SDS011;30865;51.288;4.572;2023-06-22T06:40:33;6.32;;;4.45;;
45103;SDS011;30865;51.288;4.572;2023-06-22T06:42:59;8.63;;;3.67;;
45103;SDS011;30865;51.288;4.572;2023-06-22T06:45:24;7.15;;;4.28;;
45103;SDS011;30865;51.288;4.572;2023-06-22T06:47:52;6.72;;;3.95;;
45103;SDS011;30865;51.288;4.572;2023-06-22T06:50:18;14.18;;;4.35;;
45103;SDS011;30865;51.288;4.572;2023-06-22T06:52:44;5.93;;;3.67;;
45103;SDS011;30865;51.288;4.572;2023-06-22T06:55:10;7.50;;;3.88;;
45103;SDS011;30865;51.288;4.572;2023-06-22T06:57:36;10.55;;;3.92;;
45103;SDS011;30865;51.288;4.572;2023-06-22T07:00:15;8.15;;;3.40;;
45103;SDS011;30865;51.288;4.572;2023-06-22T07:02:42;7.05;;;4.00;;
45103;SDS011;30865;51.288;4.572;2023-06-22T07:05:09;5.70;;;3.47;;
45103;SDS011;30865;51.288;4.572;2023-06-22T07:07:36;7.47;;;3.65;;
45103;SDS011;30865;51.288;4.572;2023-06-22T07:10:02;5.63;;;3.28;;
45103;SDS011;30865;51.288;4.572;2023-06-22T07:12:28;5.43;;;3.58;;
45103;SDS011;30865;51.288;4.572;2023-06-22T07:14:53;7.28;;;3.63;;
45103;SDS011;30865;51.288;4.572;2023-06-22T07:17:26;8.50;;;3.67;;
45103;SDS011;30865;51.288;4.572;2023-06-22T07:19:51;7.97;;;4.05;;
45103;SDS011;30865;51.288;4.572;2023-06-22T07:22:20;6.65;;;4.18;;
45103;SDS011;30865;51.288;4.572;2023-06-22T07:24:46;8.48;;;4.15;;
45103;SDS011;30865;51.288;4.572;2023-06-22T07:27:11;7.18;;;4.22;;
45103;SDS011;30865;51.288;4.572;2023-06-22T07:29:37;7.53;;;4.00;;
45103;SDS011;30865;51.288;4.572;2023-06-22T07:32:05;13.05;;;4.75;;
45103;SDS011;30865;51.288;4.572;2023-06-22T07:34:31;7.18;;;3.67;;
45103;SDS011;30865;51.288;4.572;2023-06-22T07:37:06;12.15;;;4.45;;
45103;SDS011;30865;51.288;4.572;2023-06-22T07:39:33;6.90;;;3.72;;
45103;SDS011;30865;51.288;4.572;2023-06-22T07:41:58;14.85;;;4.63;;
45103;SDS011;30865;51.288;4.572;2023-06-22T07:44:24;8.23;;;3.38;;
45103;SDS011;30865;51.288;4.572;2023-06-22T07:46:49;8.98;;;3.75;;
45103;SDS011;30865;51.288;4.572;2023-06-22T07:49:15;10.07;;;4.35;;
45103;SDS011;30865;51.288;4.572;2023-06-22T07:51:43;7.70;;;3.50;;
45103;SDS011;30865;51.288;4.572;2023-06-22T07:54:09;14.23;;;5.00;;
45103;SDS011;30865;51.288;4.572;2023-06-22T07:56:35;14.35;;;3.95;;
45103;SDS011;30865;51.288;4.572;2023-06-22T07:59:01;10.05;;;3.83;;
45103;SDS011;30865;51.288;4.572;2023-06-22T08:01:28;7.55;;;3.60;;
45103;SDS011;30865;51.288;4.572;2023-06-22T08:03:54;8.05;;;3.70;;
45103;SDS011;30865;51.288;4.572;2023-06-22T08:06:19;11.07;;;3.95;;
45103;SDS011;30865;51.288;4.572;2023-06-22T08:08:45;8.25;;;3.13;;
45103;SDS011;30865;51.288;4.572;2023-06-22T08:11:13;8.80;;;3.97;;
45103;SDS011;30865;51.288;4.572;2023-06-22T08:13:38;7.95;;;2.83;;
45103;SDS011;30865;51.288;4.572;2023-06-22T08:16:04;9.02;;;3.33;;
45103;SDS011;30865;51.288;4.572;2023-06-22T08:18:30;7.55;;;3.17;;
45103;SDS011;30865;51.288;4.572;2023-06-22T08:20:55;7.15;;;3.63;;
45103;SDS011;30865;51.288;4.572;2023-06-22T08:23:26;5.22;;;2.85;;
45103;SDS011;30865;51.288;4.572;2023-06-22T08:25:54;9.98;;;3.92;;
45103;SDS011;30865;51.288;4.572;2023-06-22T08:28:19;11.95;;;3.70;;
45103;SDS011;30865;51.288;4.572;2023-06-22T08:30:45;11.95;;;5.03;;
45103;SDS011;30865;51.288;4.572;2023-06-22T08:33:10;7.72;;;4.15;;
45103;SDS011;30865;51.288;4.572;2023-06-22T08:35:36;6.28;;;4.05;;
45103;SDS011;30865;51.288;4.572;2023-06-22T08:38:01;8.15;;;3.72;;
45103;SDS011;30865;51.288;4.572;2023-06-22T08:40:27;9.27;;;3.30;;
45103;SDS011;30865;51.288;4.572;2023-06-22T08:42:54;7.43;;;3.58;;
45103;SDS011;30865;51.288;4.572;2023-06-22T08:45:20;7.55;;;2.97;;
45103;SDS011;30865;51.288;4.572;2023-06-22T08:47:45;9.88;;;3.50;;
45103;SDS011;30865;51.288;4.572;2023-06-22T08:50:11;9.27;;;3.05;;
45103;SDS011;30865;51.288;4.572;2023-06-22T08:52:37;10.48;;;4.05;;
45103;SDS011;30865;51.288;4.572;2023-06-22T08:55:06;10.40;;;3.85;;
45103;SDS011;30865;51.288;4.572;2023-06-22T08:57:32;10.00;;;3.05;;
45103;SDS011;30865;51.288;4.572;2023-06-22T08:59:58;7.90;;;3.45;;
45103;SDS011;30865;51.288;4.572;2023-06-22T09:02:24;7.55;;;3.83;;
45103;SDS011;30865;51.288;4.572;2023-06-22T09:04:51;9.27;;;3.78;;
45103;SDS011;30865;51.288;4.572;2023-06-22T09:07:20;10.02;;;4.00;;
45103;SDS011;30865;51.288;4.572;2023-06-22T09:09:50;7.77;;;4.13;;
45103;SDS011;30865;51.288;4.572;2023-06-22T09:12:16;12.75;;;4.32;;
45103;SDS011;30865;51.288;4.572;2023-06-22T09:14:41;7.18;;;3.38;;
45103;SDS011;30865;51.288;4.572;2023-06-22T09:17:07;8.68;;;3.38;;
45103;SDS011;30865;51.288;4.572;2023-06-22T09:19:32;7.50;;;4.00;;
45103;SDS011;30865;51.288;4.572;2023-06-22T09:21:58;9.25;;;3.83;;
45103;SDS011;30865;51.288;4.572;2023-06-22T09:24:24;8.70;;;3.85;;
45103;SDS011;30865;51.288;4.572;2023-06-22T09:26:50;14.00;;;4.85;;
45103;SDS011;30865;51.288;4.572;2023-06-22T09:29:16;12.30;;;4.07;;
45103;SDS011;30865;51.288;4.572;2023-06-22T09:31:41;10.00;;;3.85;;
45103;SDS011;30865;51.288;4.572;2023-06-22T09:34:07;8.48;;;4.10;;
45103;SDS011;30865;51.288;4.572;2023-06-22T09:36:33;6.15;;;3.53;;
45103;SDS011;30865;51.288;4.572;2023-06-22T09:38:58;14.82;;;4.75;;
45103;SDS011;30865;51.288;4.572;2023-06-22T09:41:26;8.45;;;4.30;;
45103;SDS011;30865;51.288;4.572;2023-06-22T09:43:52;18.92;;;5.13;;
45103;SDS011;30865;51.288;4.572;2023-06-22T09:46:18;9.65;;;4.38;;
45103;SDS011;30865;51.288;4.572;2023-06-22T09:48:43;10.18;;;4.40;;
45103;SDS011;30865;51.288;4.572;2023-06-22T09:51:09;8.07;;;4.20;;
45103;SDS011;30865;51.288;4.572;2023-06-22T09:53:35;8.30;;;4.15;;
45103;SDS011;30865;51.288;4.572;2023-06-22T09:56:01;9.20;;;3.90;;
45103;SDS011;30865;51.288;4.572;2023-06-22T09:58:26;7.60;;;4.00;;
45103;SDS011;30865;51.288;4.572;2023-06-22T10:00:52;9.45;;;3.80;;
45103;SDS011;30865;51.288;4.572;2023-06-22T10:03:19;11.98;;;4.90;;
45103;SDS011;30865;51.288;4.572;2023-06-22T10:05:45;11.00;;;4.57;;
45103;SDS011;30865;51.288;4.572;2023-06-22T10:08:10;6.22;;;4.00;;
45103;SDS011;30865;51.288;4.572;2023-06-22T10:10:36;9.93;;;4.68;;
45103;SDS011;30865;51.288;4.572;2023-06-22T10:13:08;8.00;;;3.85;;
45103;SDS011;30865;51.288;4.572;2023-06-22T10:15:38;7.35;;;3.92;;
45103;SDS011;30865;51.288;4.572;2023-06-22T10:18:04;13.30;;;4.55;;
45103;SDS011;30865;51.288;4.572;2023-06-22T10:20:29;9.57;;;3.38;;
45103;SDS011;30865;51.288;4.572;2023-06-22T10:22:55;10.07;;;4.65;;
45103;SDS011;30865;51.288;4.572;2023-06-22T10:25:20;15.13;;;5.15;;
45103;SDS011;30865;51.288;4.572;2023-06-22T10:27:46;11.73;;;4.60;;
45103;SDS011;30865;51.288;4.572;2023-06-22T10:30:12;9.38;;;4.22;;
45103;SDS011;30865;51.288;4.572;2023-06-22T10:32:38;11.77;;;5.30;;
45103;SDS011;30865;51.288;4.572;2023-06-22T10:35:04;10.98;;;3.83;;
45103;SDS011;30865;51.288;4.572;2023-06-22T10:37:31;13.75;;;4.60;;
45103;SDS011;30865;51.288;4.572;2023-06-22T10:39:57;12.13;;;4.93;;
45103;SDS011;30865;51.288;4.572;2023-06-22T10:42:23;9.15;;;4.20;;
45103;SDS011;30865;51.288;4.572;2023-06-22T10:44:48;11.02;;;3.97;;
45103;SDS011;30865;51.288;4.572;2023-06-22T10:47:14;8.48;;;3.97;;
45103;SDS011;30865;51.288;4.572;2023-06-22T10:49:40;11.20;;;4.07;;
45103;SDS011;30865;51.288;4.572;2023-06-22T10:52:06;15.23;;;4.35;;
45103;SDS011;30865;51.288;4.572;2023-06-22T10:54:33;16.42;;;4.78;;
45103;SDS011;30865;51.288;4.572;2023-06-22T10:56:59;9.70;;;3.40;;
45103;SDS011;30865;51.288;4.572;2023-06-22T10:59:25;14.32;;;4.82;;
45103;SDS011;30865;51.288;4.572;2023-06-22T11:01:51;9.95;;;3.88;;
45103;SDS011;30865;51.288;4.572;2023-06-22T11:04:17;10.38;;;4.47;;
45103;SDS011;30865;51.288;4.572;2023-06-22T11:06:43;11.57;;;4.90;;
45103;SDS011;30865;51.288;4.572;2023-06-22T11:09:09;12.52;;;4.93;;
45103;SDS011;30865;51.288;4.572;2023-06-22T11:11:34;10.88;;;4.35;;
45103;SDS011;30865;51.288;4.572;2023-06-22T11:14:00;12.88;;;4.47;;
45103;SDS011;30865;51.288;4.572;2023-06-22T11:16:25;14.93;;;4.22;;
45103;SDS011;30865;51.288;4.572;2023-06-22T11:18:51;13.32;;;6.35;;
45103;SDS011;30865;51.288;4.572;2023-06-22T11:21:16;13.63;;;5.38;;
45103;SDS011;30865;51.288;4.572;2023-06-22T11:23:42;7.55;;;3.90;;
45103;SDS011;30865;51.288;4.572;2023-06-22T11:26:07;12.40;;;4.45;;
45103;SDS011;30865;51.288;4.572;2023-06-22T11:28:33;11.15;;;4.25;;
45103;SDS011;30865;51.288;4.572;2023-06-22T11:30:59;8.60;;;4.43;;
45103;SDS011;30865;51.288;4.572;2023-06-22T11:33:24;13.82;;;4.65;;
45103;SDS011;30865;51.288;4.572;2023-06-22T11:35:50;11.63;;;5.38;;
45103;SDS011;30865;51.288;4.572;2023-06-22T11:38:18;10.90;;;4.93;;
45103;SDS011;30865;51.288;4.572;2023-06-22T11:40:43;10.93;;;5.03;;
45103;SDS011;30865;51.288;4.572;2023-06-22T11:43:09;14.25;;;5.45;;
45103;SDS011;30865;51.288;4.572;2023-06-22T11:45:35;9.68;;;4.68;;
45103;SDS011;30865;51.288;4.572;2023-06-22T11:48:00;7.35;;;4.50;;
45103;SDS011;30865;51.288;4.572;2023-06-22T11:50:26;12.15;;;4.15;;
45103;SDS011;30865;51.288;4.572;2023-06-22T11:52:51;16.80;;;4.90;;
45103;SDS011;30865;51.288;4.572;2023-06-22T11:55:17;10.70;;;4.00;;
45103;SDS011;30865;51.288;4.572;2023-06-22T11:57:56;16.00;;;5.50;;
45103;SDS011;30865;51.288;4.572;2023-06-22T12:00:28;11.73;;;4.80;;
45103;SDS011;30865;51.288;4.572;2023-06-22T12:02:54;11.93;;;4.50;;
45103;SDS011;30865;51.288;4.572;2023-06-22T12:05:21;11.98;;;5.57;;
45103;SDS011;30865;51.288;4.572;2023-06-22T12:07:47;11.63;;;5.05;;
45103;SDS011;30865;51.288;4.572;2023-06-22T12:10:13;10.02;;;4.78;;
45103;SDS011;30865;51.288;4.572;2023-06-22T12:12:38;7.15;;;3.78;;
45103;SDS011;30865;51.288;4.572;2023-06-22T12:15:04;11.82;;;4.22;;
45103;SDS011;30865;51.288;4.572;2023-06-22T12:17:30;9.50;;;4.03;;
45103;SDS011;30865;51.288;4.572;2023-06-22T12:19:56;12.43;;;4.75;;
45103;SDS011;30865;51.288;4.572;2023-06-22T12:22:22;11.95;;;4.03;;
45103;SDS011;30865;51.288;4.572;2023-06-22T12:24:47;12.18;;;4.60;;
45103;SDS011;30865;51.288;4.572;2023-06-22T12:27:13;13.02;;;4.47;;
45103;SDS011;30865;51.288;4.572;2023-06-22T12:29:41;10.20;;;4.50;;
45103;SDS011;30865;51.288;4.572;2023-06-22T12:32:06;20.77;;;7.85;;
45103;SDS011;30865;51.288;4.572;2023-06-22T12:34:32;14.02;;;8.00;;
45103;SDS011;30865;51.288;4.572;2023-06-22T12:36:58;10.70;;;4.72;;
45103;SDS011;30865;51.288;4.572;2023-06-22T12:39:23;13.02;;;4.47;;
45103;SDS011;30865;51.288;4.572;2023-06-22T12:41:49;11.90;;;4.13;;
45103;SDS011;30865;51.288;4.572;2023-06-22T12:44:14;11.68;;;3.95;;
45103;SDS011;30865;51.288;4.572;2023-06-22T12:46:40;11.68;;;4.20;;
45103;SDS011;30865;51.288;4.572;2023-06-22T12:49:06;10.50;;;4.05;;
45103;SDS011;30865;51.288;4.572;2023-06-22T12:51:31;7.40;;;3.90;;
45103;SDS011;30865;51.288;4.572;2023-06-22T12:53:57;11.23;;;4.75;;
45103;SDS011;30865;51.288;4.572;2023-06-22T12:56:22;12.63;;;4.50;;
45103;SDS011;30865;51.288;4.572;2023-06-22T12:58:48;13.52;;;4.90;;
45103;SDS011;30865;51.288;4.572;2023-06-22T13:01:13;11.40;;;4.90;;
45103;SDS011;30865;51.288;4.572;2023-06-22T13:03:39;21.48;;;4.25;;
45103;SDS011;30865;51.288;4.572;2023-06-22T13:06:05;11.82;;;3.75;;
45103;SDS011;30865;51.288;4.572;2023-06-22T13:08:30;10.10;;;3.90;;
45103;SDS011;30865;51.288;4.572;2023-06-22T13:10:56;10.95;;;4.10;;
45103;SDS011;30865;51.288;4.572;2023-06-22T13:13:23;11.35;;;4.28;;
45103;SDS011;30865;51.288;4.572;2023-06-22T13:15:54;9.65;;;3.42;;
45103;SDS011;30865;51.288;4.572;2023-06-22T13:18:20;10.13;;;4.60;;
45103;SDS011;30865;51.288;4.572;2023-06-22T13:20:46;7.55;;;4.00;;
45103;SDS011;30865;51.288;4.572;2023-06-22T13:23:11;11.02;;;4.38;;
45103;SDS011;30865;51.288;4.572;2023-06-22T13:25:37;12.55;;;4.72;;
45103;SDS011;30865;51.288;4.572;2023-06-22T13:28:12;12.98;;;4.05;;
45103;SDS011;30865;51.288;4.572;2023-06-22T13:30:41;5.97;;;3.80;;
45103;SDS011;30865;51.288;4.572;2023-06-22T13:33:07;9.82;;;4.65;;
45103;SDS011;30865;51.288;4.572;2023-06-22T13:35:33;10.07;;;4.38;;
45103;SDS011;30865;51.288;4.572;2023-06-22T13:38:00;13.93;;;4.65;;
45103;SDS011;30865;51.288;4.572;2023-06-22T13:40:25;8.43;;;3.45;;
45103;SDS011;30865;51.288;4.572;2023-06-22T13:42:51;10.48;;;4.70;;
45103;SDS011;30865;51.288;4.572;2023-06-22T13:45:16;9.90;;;3.42;;
45103;SDS011;30865;51.288;4.572;2023-06-22T13:47:43;5.43;;;3.35;;
45103;SDS011;30865;51.288;4.572;2023-06-22T13:50:09;11.30;;;3.90;;
45103;SDS011;30865;51.288;4.572;2023-06-22T13:52:35;14.63;;;4.28;;
45103;SDS011;30865;51.288;4.572;2023-06-22T13:55:01;9.05;;;3.60;;
45103;SDS011;30865;51.288;4.572;2023-06-22T13:57:27;10.80;;;3.88;;
45103;SDS011;30865;51.288;4.572;2023-06-22T13:59:52;10.80;;;5.18;;
45103;SDS011;30865;51.288;4.572;2023-06-22T14:02:18;10.27;;;4.20;;
45103;SDS011;30865;51.288;4.572;2023-06-22T14:04:44;10.27;;;4.25;;
45103;SDS011;30865;51.288;4.572;2023-06-22T14:07:09;7.75;;;5.03;;
45103;SDS011;30865;51.288;4.572;2023-06-22T14:09:35;13.05;;;5.07;;
45103;SDS011;30865;51.288;4.572;2023-06-22T14:12:04;10.85;;;3.97;;
45103;SDS011;30865;51.288;4.572;2023-06-22T14:14:31;13.48;;;4.78;;
45103;SDS011;30865;51.288;4.572;2023-06-22T14:16:58;7.57;;;3.70;;
45103;SDS011;30865;51.288;4.572;2023-06-22T14:19:23;10.40;;;3.70;;
45103;SDS011;30865;51.288;4.572;2023-06-22T14:21:49;9.80;;;3.50;;
45103;SDS011;30865;51.288;4.572;2023-06-22T14:24:15;11.98;;;3.72;;
45103;SDS011;30865;51.288;4.572;2023-06-22T14:26:40;13.68;;;4.55;;
45103;SDS011;30865;51.288;4.572;2023-06-22T14:29:06;7.90;;;3.40;;
45103;SDS011;30865;51.288;4.572;2023-06-22T14:31:31;7.45;;;3.92;;
45103;SDS011;30865;51.288;4.572;2023-06-22T14:33:57;15.90;;;4.97;;
45103;SDS011;30865;51.288;4.572;2023-06-22T14:36:23;12.65;;;4.13;;
45103;SDS011;30865;51.288;4.572;2023-06-22T14:38:48;11.05;;;3.25;;